sensor_id;sensor_type;location;lat;lon;timestamp;pressure;altitude;pressure_sealevel;temperature;humidity
31681;BME280;18281;51.364;9.566;2022-11-10T00:02:18;100136.44;;;5.77;100.00
31681;BME280;18281;51.364;9.566;2022-11-10T00:04:43;100139.31;;;5.95;100.00
31681;BME280;18281;51.364;9.566;2022-11-10T00:07:09;100141.38;;;5.85;100.00
31681;BME280;18281;51.364;9.566;2022-11-10T00:09:34;100143.72;;;5.93;100.00
31681;BME280;18281;51.364;9.566;2022-11-10T00:12:03;100153.44;;;5.87;100.00
31681;BME280;18281;51.364;9.566;2022-11-10T00:14:31;100156.66;;;5.96;100.00
31681;BME280;18281;51.364;9.566;2022-11-10T00:17:15;100157.69;;;5.90;100.00
31681;BME280;18281;51.364;9.566;2022-11-10T00:19:41;100151.75;;;5.86;100.00
31681;BME280;18281;51.364;9.566;2022-11-10T00:22:06;100155.47;;;5.52;100.00
31681;BME280;18281;51.364;9.566;2022-11-10T00:24:31;100159.72;;;5.82;100.00
31681;BME280;18281;51.364;9.566;2022-11-10T00:26:57;100167.28;;;5.89;100.00
31681;BME280;18281;51.364;9.566;2022-11-10T00:29:25;100168.41;;;5.82;100.00
31681;BME280;18281;51.364;9.566;2022-11-10T00:31:51;100173.38;;;5.88;100.00
31681;BME280;18281;51.364;9.566;2022-11-10T00:34:16;100166.00;;;5.76;100.00
31681;BME280;18281;51.364;9.566;2022-11-10T00:36:42;100176.22;;;5.82;100.00
31681;BME280;18281;51.364;9.566;2022-11-10T00:39:09;100171.31;;;5.73;100.00
31681;BME280;18281;51.364;9.566;2022-11-10T00:41:34;100173.00;;;5.74;100.00
31681;BME280;18281;51.364;9.566;2022-11-10T00:44:00;100178.47;;;5.66;100.00
31681;BME280;18281;51.364;9.566;2022-11-10T00:46:26;100193.38;;;5.33;100.00
31681;BME280;18281;51.364;9.566;2022-11-10T00:48:51;100189.84;;;5.34;100.00
31681;BME280;18281;51.364;9.566;2022-11-10T00:51:25;100199.22;;;5.41;100.00
31681;BME280;18281;51.364;9.566;2022-11-10T00:53:51;100199.66;;;5.55;100.00
31681;BME280;18281;51.364;9.566;2022-11-10T00:56:18;100215.69;;;5.42;100.00
31681;BME280;18281;51.364;9.566;2022-11-10T00:58:43;100216.13;;;5.56;100.00
31681;BME280;18281;51.364;9.566;2022-11-10T01:01:09;100213.00;;;5.73;100.00
31681;BME280;18281;51.364;9.566;2022-11-10T01:03:35;100222.06;;;5.88;100.00
31681;BME280;18281;51.364;9.566;2022-11-10T01:06:06;100216.94;;;5.85;100.00
31681;BME280;18281;51.364;9.566;2022-11-10T01:08:31;100213.88;;;5.99;100.00
31681;BME280;18281;51.364;9.566;2022-11-10T01:11:07;100220.00;;;5.71;100.00
31681;BME280;18281;51.364;9.566;2022-11-10T01:13:34;100226.03;;;5.71;100.00
31681;BME280;18281;51.364;9.566;2022-11-10T01:16:05;100224.81;;;5.55;100.00
31681;BME280;18281;51.364;9.566;2022-11-10T01:18:34;100237.81;;;5.56;100.00
31681;BME280;18281;51.364;9.566;2022-11-10T01:21:00;100235.16;;;5.86;100.00
31681;BME280;18281;51.364;9.566;2022-11-10T01:23:28;100232.84;;;5.77;100.00
31681;BME280;18281;51.364;9.566;2022-11-10T01:25:58;100229.72;;;5.93;100.00
31681;BME280;18281;51.364;9.566;2022-11-10T01:28:24;100237.50;;;5.66;100.00
31681;BME280;18281;51.364;9.566;2022-11-10T01:31:03;100247.84;;;5.69;100.00
31681;BME280;18281;51.364;9.566;2022-11-10T01:33:29;100254.34;;;5.55;100.00
31681;BME280;18281;51.364;9.566;2022-11-10T01:35:57;100252.97;;;5.72;100.00
31681;BME280;18281;51.364;9.566;2022-11-10T01:38:25;100258.59;;;5.86;100.00
31681;BME280;18281;51.364;9.566;2022-11-10T01:40:50;100263.59;;;5.93;100.00
31681;BME280;18281;51.364;9.566;2022-11-10T01:43:18;100253.31;;;5.88;100.00
31681;BME280;18281;51.364;9.566;2022-11-10T01:46:07;100267.94;;;5.65;100.00
31681;BME280;18281;51.364;9.566;2022-11-10T01:48:58;100258.97;;;5.74;100.00
31681;BME280;18281;51.364;9.566;2022-11-10T01:53:55;100257.88;;;5.81;100.00
31681;BME280;18281;51.364;9.566;2022-11-10T01:56:23;100255.34;;;5.78;100.00
31681;BME280;18281;51.364;9.566;2022-11-10T01:58:59;100257.94;;;5.80;100.00
31681;BME280;18281;51.364;9.566;2022-11-10T02:01:26;100265.94;;;5.45;100.00
31681;BME280;18281;51.364;9.566;2022-11-10T02:03:58;100259.34;;;5.32;100.00
31681;BME280;18281;51.364;9.566;2022-11-10T02:06:26;100265.59;;;5.26;100.00
31681;BME280;18281;51.364;9.566;2022-11-10T02:08:55;100271.41;;;5.36;100.00
31681;BME280;18281;51.364;9.566;2022-11-10T02:11:21;100270.22;;;5.16;100.00
31681;BME280;18281;51.364;9.566;2022-11-10T02:13:47;100267.06;;;5.36;100.00
31681;BME280;18281;51.364;9.566;2022-11-10T02:16:13;100267.25;;;5.59;100.00
31681;BME280;18281;51.364;9.566;2022-11-10T02:18:38;100281.31;;;4.92;100.00
31681;BME280;18281;51.364;9.566;2022-11-10T02:21:08;100281.28;;;5.23;100.00
31681;BME280;18281;51.364;9.566;2022-11-10T02:26:00;100279.25;;;5.34;100.00
31681;BME280;18281;51.364;9.566;2022-11-10T02:28:26;100273.38;;;5.28;100.00
31681;BME280;18281;51.364;9.566;2022-11-10T02:30:53;100282.66;;;5.36;100.00
31681;BME280;18281;51.364;9.566;2022-11-10T02:33:19;100293.63;;;5.48;100.00
31681;BME280;18281;51.364;9.566;2022-11-10T02:35:47;100295.63;;;5.38;100.00
31681;BME280;18281;51.364;9.566;2022-11-10T02:38:13;100307.28;;;5.24;100.00
31681;BME280;18281;51.364;9.566;2022-11-10T02:40:39;100308.00;;;5.30;100.00
31681;BME280;18281;51.364;9.566;2022-11-10T02:43:08;100323.56;;;5.31;100.00
31681;BME280;18281;51.364;9.566;2022-11-10T02:45:35;100324.88;;;5.16;100.00
31681;BME280;18281;51.364;9.566;2022-11-10T02:48:06;100325.06;;;5.09;100.00
31681;BME280;18281;51.364;9.566;2022-11-10T02:50:32;100325.19;;;5.37;100.00
31681;BME280;18281;51.364;9.566;2022-11-10T02:52:58;100320.28;;;5.26;100.00
31681;BME280;18281;51.364;9.566;2022-11-10T02:55:23;100324.88;;;5.16;100.00
31681;BME280;18281;51.364;9.566;2022-11-10T02:57:48;100324.03;;;5.16;100.00
31681;BME280;18281;51.364;9.566;2022-11-10T03:00:14;100324.56;;;5.27;100.00
31681;BME280;18281;51.364;9.566;2022-11-10T03:02:39;100324.50;;;5.29;100.00
31681;BME280;18281;51.364;9.566;2022-11-10T03:05:05;100322.31;;;5.15;100.00
31681;BME280;18281;51.364;9.566;2022-11-10T03:07:30;100323.53;;;5.01;100.00
31681;BME280;18281;51.364;9.566;2022-11-10T03:09:56;100332.03;;;5.08;100.00
31681;BME280;18281;51.364;9.566;2022-11-10T03:12:21;100328.53;;;4.76;100.00
31681;BME280;18281;51.364;9.566;2022-11-10T03:14:46;100330.97;;;4.84;100.00
31681;BME280;18281;51.364;9.566;2022-11-10T03:17:12;100333.75;;;4.76;100.00
31681;BME280;18281;51.364;9.566;2022-11-10T03:19:37;100333.13;;;5.01;100.00
31681;BME280;18281;51.364;9.566;2022-11-10T03:22:02;100335.31;;;5.15;100.00
31681;BME280;18281;51.364;9.566;2022-11-10T03:24:28;100331.06;;;5.12;100.00
31681;BME280;18281;51.364;9.566;2022-11-10T03:26:53;100333.91;;;5.03;100.00
31681;BME280;18281;51.364;9.566;2022-11-10T03:29:19;100336.00;;;4.90;100.00
31681;BME280;18281;51.364;9.566;2022-11-10T03:31:44;100353.28;;;4.91;100.00
31681;BME280;18281;51.364;9.566;2022-11-10T03:34:09;100360.34;;;4.87;100.00
31681;BME280;18281;51.364;9.566;2022-11-10T03:36:35;100374.66;;;5.04;100.00
31681;BME280;18281;51.364;9.566;2022-11-10T03:39:00;100380.00;;;4.98;100.00
31681;BME280;18281;51.364;9.566;2022-11-10T03:41:26;100390.19;;;5.07;100.00
31681;BME280;18281;51.364;9.566;2022-11-10T03:43:51;100386.09;;;5.30;100.00
31681;BME280;18281;51.364;9.566;2022-11-10T03:46:17;100387.91;;;5.28;100.00
31681;BME280;18281;51.364;9.566;2022-11-10T03:48:43;100393.25;;;4.88;100.00
31681;BME280;18281;51.364;9.566;2022-11-10T03:51:08;100398.63;;;5.17;100.00
31681;BME280;18281;51.364;9.566;2022-11-10T03:53:34;100398.47;;;5.21;100.00
31681;BME280;18281;51.364;9.566;2022-11-10T03:56:04;100388.09;;;4.87;100.00
31681;BME280;18281;51.364;9.566;2022-11-10T03:58:30;100397.75;;;4.83;100.00
31681;BME280;18281;51.364;9.566;2022-11-10T04:00:58;100398.38;;;5.24;100.00
31681;BME280;18281;51.364;9.566;2022-11-10T04:03:24;100392.50;;;5.18;100.00
31681;BME280;18281;51.364;9.566;2022-11-10T04:05:49;100388.59;;;5.34;100.00
31681;BME280;18281;51.364;9.566;2022-11-10T04:08:33;100395.72;;;4.95;100.00
31681;BME280;18281;51.364;9.566;2022-11-10T04:11:18;100407.75;;;4.99;100.00
31681;BME280;18281;51.364;9.566;2022-11-10T04:14:03;100402.53;;;4.99;100.00
31681;BME280;18281;51.364;9.566;2022-11-10T04:16:47;100411.28;;;5.29;100.00
31681;BME280;18281;51.364;9.566;2022-11-10T04:19:12;100414.84;;;5.27;100.00
31681;BME280;18281;51.364;9.566;2022-11-10T04:21:38;100415.63;;;5.29;100.00
31681;BME280;18281;51.364;9.566;2022-11-10T04:24:03;100424.19;;;5.34;100.00
31681;BME280;18281;51.364;9.566;2022-11-10T04:26:29;100422.31;;;5.06;100.00
31681;BME280;18281;51.364;9.566;2022-11-10T04:29:03;100433.13;;;4.90;100.00
31681;BME280;18281;51.364;9.566;2022-11-10T04:31:31;100438.66;;;5.11;100.00
31681;BME280;18281;51.364;9.566;2022-11-10T04:33:57;100437.44;;;4.92;100.00
31681;BME280;18281;51.364;9.566;2022-11-10T04:36:25;100445.81;;;5.03;100.00
31681;BME280;18281;51.364;9.566;2022-11-10T04:38:51;100440.53;;;5.06;100.00
31681;BME280;18281;51.364;9.566;2022-11-10T04:41:18;100436.56;;;4.91;100.00
31681;BME280;18281;51.364;9.566;2022-11-10T04:43:44;100452.06;;;4.60;100.00
31681;BME280;18281;51.364;9.566;2022-11-10T04:46:21;100458.94;;;4.25;100.00
31681;BME280;18281;51.364;9.566;2022-11-10T04:48:47;100457.09;;;4.28;100.00
31681;BME280;18281;51.364;9.566;2022-11-10T04:51:15;100465.88;;;4.62;100.00
31681;BME280;18281;51.364;9.566;2022-11-10T04:53:40;100461.97;;;4.81;100.00
31681;BME280;18281;51.364;9.566;2022-11-10T04:56:05;100460.63;;;4.65;100.00
31681;BME280;18281;51.364;9.566;2022-11-10T04:58:31;100482.72;;;4.45;100.00
31681;BME280;18281;51.364;9.566;2022-11-10T05:00:58;100485.03;;;4.59;100.00
31681;BME280;18281;51.364;9.566;2022-11-10T05:03:23;100482.72;;;4.45;100.00
31681;BME280;18281;51.364;9.566;2022-11-10T05:05:50;100480.97;;;4.47;100.00
31681;BME280;18281;51.364;9.566;2022-11-10T05:08:16;100482.91;;;4.37;100.00
31681;BME280;18281;51.364;9.566;2022-11-10T05:10:41;100496.94;;;4.30;100.00
31681;BME280;18281;51.364;9.566;2022-11-10T05:13:07;100497.66;;;4.37;100.00
31681;BME280;18281;51.364;9.566;2022-11-10T05:15:33;100500.31;;;4.34;100.00
31681;BME280;18281;51.364;9.566;2022-11-10T05:17:58;100503.94;;;4.27;100.00
31681;BME280;18281;51.364;9.566;2022-11-10T05:20:24;100500.25;;;4.37;100.00
31681;BME280;18281;51.364;9.566;2022-11-10T05:22:51;100510.78;;;4.31;100.00
31681;BME280;18281;51.364;9.566;2022-11-10T05:25:38;100515.84;;;4.37;100.00
31681;BME280;18281;51.364;9.566;2022-11-10T05:28:05;100515.09;;;4.32;100.00
31681;BME280;18281;51.364;9.566;2022-11-10T05:30:31;100518.31;;;4.43;100.00
31681;BME280;18281;51.364;9.566;2022-11-10T05:32:57;100531.31;;;4.43;100.00
31681;BME280;18281;51.364;9.566;2022-11-10T05:35:23;100538.22;;;4.46;100.00
31681;BME280;18281;51.364;9.566;2022-11-10T05:37:48;100537.66;;;4.70;100.00
31681;BME280;18281;51.364;9.566;2022-11-10T05:40:14;100543.22;;;4.53;100.00
31681;BME280;18281;51.364;9.566;2022-11-10T05:42:47;100548.75;;;4.38;100.00
31681;BME280;18281;51.364;9.566;2022-11-10T05:45:14;100549.84;;;4.67;100.00
31681;BME280;18281;51.364;9.566;2022-11-10T05:47:40;100556.22;;;4.53;100.00
31681;BME280;18281;51.364;9.566;2022-11-10T05:50:07;100558.59;;;4.23;100.00
31681;BME280;18281;51.364;9.566;2022-11-10T05:52:34;100567.66;;;4.46;100.00
31681;BME280;18281;51.364;9.566;2022-11-10T05:54:59;100561.75;;;4.38;100.00
31681;BME280;18281;51.364;9.566;2022-11-10T05:57:27;100561.88;;;4.32;100.00
31681;BME280;18281;51.364;9.566;2022-11-10T05:59:53;100564.31;;;4.39;100.00
31681;BME280;18281;51.364;9.566;2022-11-10T06:02:20;100574.25;;;4.20;100.00
31681;BME280;18281;51.364;9.566;2022-11-10T06:04:46;100582.75;;;4.29;100.00
31681;BME280;18281;51.364;9.566;2022-11-10T06:07:11;100590.78;;;4.16;100.00
31681;BME280;18281;51.364;9.566;2022-11-10T06:09:36;100595.53;;;4.39;100.00
31681;BME280;18281;51.364;9.566;2022-11-10T06:12:02;100595.06;;;4.61;100.00
31681;BME280;18281;51.364;9.566;2022-11-10T06:14:28;100596.81;;;4.61;100.00
31681;BME280;18281;51.364;9.566;2022-11-10T06:16:53;100590.88;;;4.55;100.00
31681;BME280;18281;51.364;9.566;2022-11-10T06:19:18;100604.66;;;4.59;100.00
31681;BME280;18281;51.364;9.566;2022-11-10T06:21:44;100600.13;;;4.69;100.00
31681;BME280;18281;51.364;9.566;2022-11-10T06:24:09;100613.56;;;4.47;100.00
31681;BME280;18281;51.364;9.566;2022-11-10T06:26:35;100616.81;;;4.13;100.00
31681;BME280;18281;51.364;9.566;2022-11-10T06:29:00;100626.88;;;4.32;100.00
31681;BME280;18281;51.364;9.566;2022-11-10T06:31:26;100626.34;;;4.99;100.00
31681;BME280;18281;51.364;9.566;2022-11-10T06:33:52;100631.50;;;5.76;100.00
31681;BME280;18281;51.364;9.566;2022-11-10T06:36:17;100637.41;;;6.15;100.00
31681;BME280;18281;51.364;9.566;2022-11-10T06:38:43;100640.19;;;6.40;100.00
31681;BME280;18281;51.364;9.566;2022-11-10T06:41:08;100638.78;;;6.60;100.00
31681;BME280;18281;51.364;9.566;2022-11-10T06:43:34;100642.16;;;6.32;100.00
31681;BME280;18281;51.364;9.566;2022-11-10T06:45:59;100643.81;;;6.66;100.00
31681;BME280;18281;51.364;9.566;2022-11-10T06:48:24;100651.41;;;6.74;100.00
31681;BME280;18281;51.364;9.566;2022-11-10T06:50:50;100662.50;;;5.11;100.00
31681;BME280;18281;51.364;9.566;2022-11-10T06:53:16;100660.50;;;5.22;100.00
31681;BME280;18281;51.364;9.566;2022-11-10T06:55:41;100668.94;;;4.95;100.00
31681;BME280;18281;51.364;9.566;2022-11-10T06:58:07;100673.25;;;4.96;100.00
31681;BME280;18281;51.364;9.566;2022-11-10T07:00:33;100684.50;;;4.96;100.00
31681;BME280;18281;51.364;9.566;2022-11-10T07:03:00;100678.84;;;4.77;100.00
31681;BME280;18281;51.364;9.566;2022-11-10T07:05:26;100690.31;;;4.67;100.00
31681;BME280;18281;51.364;9.566;2022-11-10T07:07:51;100701.25;;;4.41;100.00
31681;BME280;18281;51.364;9.566;2022-11-10T07:10:17;100704.19;;;4.67;100.00
31681;BME280;18281;51.364;9.566;2022-11-10T07:12:42;100708.06;;;4.88;100.00
31681;BME280;18281;51.364;9.566;2022-11-10T07:15:11;100705.13;;;5.05;100.00
31681;BME280;18281;51.364;9.566;2022-11-10T07:17:39;100715.50;;;4.65;100.00
31681;BME280;18281;51.364;9.566;2022-11-10T07:20:06;100721.41;;;4.73;100.00
31681;BME280;18281;51.364;9.566;2022-11-10T07:22:32;100719.63;;;4.77;100.00
31681;BME280;18281;51.364;9.566;2022-11-10T07:24:57;100717.53;;;4.49;100.00
31681;BME280;18281;51.364;9.566;2022-11-10T07:27:22;100727.81;;;4.56;100.00
31681;BME280;18281;51.364;9.566;2022-11-10T07:29:48;100724.19;;;4.64;100.00
31681;BME280;18281;51.364;9.566;2022-11-10T07:32:13;100728.50;;;4.65;100.00
31681;BME280;18281;51.364;9.566;2022-11-10T07:34:39;100721.94;;;4.90;100.00
31681;BME280;18281;51.364;9.566;2022-11-10T07:37:04;100727.47;;;4.73;100.00
31681;BME280;18281;51.364;9.566;2022-11-10T07:39:29;100740.56;;;4.69;100.00
31681;BME280;18281;51.364;9.566;2022-11-10T07:41:55;100734.94;;;4.90;100.00
31681;BME280;18281;51.364;9.566;2022-11-10T07:44:22;100735.63;;;4.99;100.00
31681;BME280;18281;51.364;9.566;2022-11-10T07:46:47;100745.75;;;5.14;100.00
31681;BME280;18281;51.364;9.566;2022-11-10T07:49:12;100751.56;;;4.83;100.00
31681;BME280;18281;51.364;9.566;2022-11-10T07:51:38;100745.44;;;4.86;100.00
31681;BME280;18281;51.364;9.566;2022-11-10T07:54:03;100766.81;;;5.00;100.00
31681;BME280;18281;51.364;9.566;2022-11-10T07:56:29;100757.69;;;5.23;100.00
31681;BME280;18281;51.364;9.566;2022-11-10T07:58:54;100761.28;;;5.17;100.00
31681;BME280;18281;51.364;9.566;2022-11-10T08:01:19;100759.28;;;5.29;100.00
31681;BME280;18281;51.364;9.566;2022-11-10T08:03:45;100761.53;;;5.05;100.00
31681;BME280;18281;51.364;9.566;2022-11-10T08:06:10;100756.53;;;5.39;100.00
31681;BME280;18281;51.364;9.566;2022-11-10T08:08:35;100764.22;;;5.44;100.00
31681;BME280;18281;51.364;9.566;2022-11-10T08:11:01;100767.28;;;5.62;100.00
31681;BME280;18281;51.364;9.566;2022-11-10T08:13:27;100767.38;;;6.64;100.00
31681;BME280;18281;51.364;9.566;2022-11-10T08:15:53;100777.38;;;7.14;100.00
31681;BME280;18281;51.364;9.566;2022-11-10T08:18:21;100775.00;;;7.04;100.00
31681;BME280;18281;51.364;9.566;2022-11-10T08:20:46;100773.34;;;6.36;100.00
31681;BME280;18281;51.364;9.566;2022-11-10T08:23:13;100769.16;;;6.63;100.00
31681;BME280;18281;51.364;9.566;2022-11-10T08:25:39;100777.38;;;6.81;100.00
31681;BME280;18281;51.364;9.566;2022-11-10T08:28:07;100778.22;;;6.81;100.00
31681;BME280;18281;51.364;9.566;2022-11-10T08:30:35;100778.47;;;7.35;100.00
31681;BME280;18281;51.364;9.566;2022-11-10T08:33:01;100778.72;;;7.26;100.00
31681;BME280;18281;51.364;9.566;2022-11-10T08:35:30;100786.56;;;6.96;100.00
31681;BME280;18281;51.364;9.566;2022-11-10T08:37:55;100789.56;;;6.80;100.00
31681;BME280;18281;51.364;9.566;2022-11-10T08:40:22;100805.63;;;6.65;100.00
31681;BME280;18281;51.364;9.566;2022-11-10T08:42:57;100807.75;;;6.16;100.00
31681;BME280;18281;51.364;9.566;2022-11-10T08:45:23;100809.63;;;6.78;100.00
31681;BME280;18281;51.364;9.566;2022-11-10T08:48:10;100813.66;;;6.90;100.00
31681;BME280;18281;51.364;9.566;2022-11-10T08:50:37;100817.81;;;7.30;100.00
31681;BME280;18281;51.364;9.566;2022-11-10T08:53:05;100823.59;;;7.10;100.00
31681;BME280;18281;51.364;9.566;2022-11-10T08:55:31;100824.06;;;7.24;100.00
31681;BME280;18281;51.364;9.566;2022-11-10T08:57:58;100822.81;;;7.38;100.00
31681;BME280;18281;51.364;9.566;2022-11-10T09:00:25;100823.06;;;7.29;100.00
31681;BME280;18281;51.364;9.566;2022-11-10T09:02:50;100829.19;;;7.57;100.00
31681;BME280;18281;51.364;9.566;2022-11-10T09:05:16;100833.72;;;7.81;100.00
31681;BME280;18281;51.364;9.566;2022-11-10T09:07:43;100831.63;;;7.64;100.00
31681;BME280;18281;51.364;9.566;2022-11-10T09:10:08;100834.34;;;7.89;100.00
31681;BME280;18281;51.364;9.566;2022-11-10T09:12:35;100839.13;;;8.03;100.00
31681;BME280;18281;51.364;9.566;2022-11-10T09:15:00;100842.34;;;8.11;100.00
31681;BME280;18281;51.364;9.566;2022-11-10T09:17:26;100839.31;;;8.25;100.00
31681;BME280;18281;51.364;9.566;2022-11-10T09:19:51;100848.50;;;8.10;100.00
31681;BME280;18281;51.364;9.566;2022-11-10T09:22:17;100845.25;;;8.30;100.00
31681;BME280;18281;51.364;9.566;2022-11-10T09:24:42;100840.88;;;8.57;100.00
31681;BME280;18281;51.364;9.566;2022-11-10T09:27:07;100850.66;;;8.52;100.00
31681;BME280;18281;51.364;9.566;2022-11-10T09:29:32;100848.78;;;8.29;100.00
31681;BME280;18281;51.364;9.566;2022-11-10T09:31:58;100850.72;;;8.76;100.00
31681;BME280;18281;51.364;9.566;2022-11-10T09:34:23;100859.78;;;8.66;100.00
31681;BME280;18281;51.364;9.566;2022-11-10T09:36:48;100860.34;;;8.50;100.00
31681;BME280;18281;51.364;9.566;2022-11-10T09:39:14;100870.28;;;8.39;100.00
31681;BME280;18281;51.364;9.566;2022-11-10T09:41:41;100865.53;;;8.77;100.00
31681;BME280;18281;51.364;9.566;2022-11-10T09:46:43;100876.63;;;9.09;100.00
31681;BME280;18281;51.364;9.566;2022-11-10T09:49:18;100881.41;;;9.23;100.00
31681;BME280;18281;51.364;9.566;2022-11-10T09:51:48;100885.16;;;9.39;100.00
31681;BME280;18281;51.364;9.566;2022-11-10T09:54:44;100891.47;;;9.34;100.00
31681;BME280;18281;51.364;9.566;2022-11-10T09:57:14;100891.34;;;9.13;100.00
31681;BME280;18281;51.364;9.566;2022-11-10T09:59:41;100879.63;;;9.23;100.00
31681;BME280;18281;51.364;9.566;2022-11-10T10:05:07;100893.06;;;9.87;100.00
31681;BME280;18281;51.364;9.566;2022-11-10T10:07:51;100887.44;;;9.96;100.00
31681;BME280;18281;51.364;9.566;2022-11-10T10:10:22;100883.84;;;9.28;100.00
31681;BME280;18281;51.364;9.566;2022-11-10T10:18:47;100885.19;;;9.63;100.00
31681;BME280;18281;51.364;9.566;2022-11-10T10:24:32;100893.91;;;9.40;100.00
31681;BME280;18281;51.364;9.566;2022-11-10T10:27:01;100892.03;;;8.41;100.00
31681;BME280;18281;51.364;9.566;2022-11-10T10:29:38;100901.13;;;8.83;100.00
31681;BME280;18281;51.364;9.566;2022-11-10T10:32:10;100899.84;;;8.95;100.00
31681;BME280;18281;51.364;9.566;2022-11-10T10:34:36;100887.63;;;9.91;100.00
31681;BME280;18281;51.364;9.566;2022-11-10T10:37:03;100893.31;;;9.55;100.00
31681;BME280;18281;51.364;9.566;2022-11-10T10:39:35;100888.84;;;10.05;100.00
31681;BME280;18281;51.364;9.566;2022-11-10T10:42:16;100887.81;;;10.09;100.00
31681;BME280;18281;51.364;9.566;2022-11-10T10:45:23;100896.59;;;9.86;100.00
31681;BME280;18281;51.364;9.566;2022-11-10T10:47:52;100894.69;;;9.89;100.00
31681;BME280;18281;51.364;9.566;2022-11-10T10:53:10;100882.25;;;9.23;100.00
31681;BME280;18281;51.364;9.566;2022-11-10T10:55:36;100888.75;;;9.61;100.00
31681;BME280;18281;51.364;9.566;2022-11-10T10:58:04;100892.47;;;9.55;100.00
31681;BME280;18281;51.364;9.566;2022-11-10T11:00:30;100905.34;;;10.08;100.00
31681;BME280;18281;51.364;9.566;2022-11-10T11:03:05;100913.13;;;9.64;100.00
31681;BME280;18281;51.364;9.566;2022-11-10T11:05:31;100912.59;;;9.29;100.00
31681;BME280;18281;51.364;9.566;2022-11-10T11:07:59;100898.25;;;9.39;100.00
31681;BME280;18281;51.364;9.566;2022-11-10T11:10:33;100914.75;;;9.18;100.00
31681;BME280;18281;51.364;9.566;2022-11-10T11:15:37;100909.50;;;9.90;100.00
31681;BME280;18281;51.364;9.566;2022-11-10T11:18:11;100908.34;;;9.75;100.00
31681;BME280;18281;51.364;9.566;2022-11-10T11:35:14;100900.81;;;10.12;100.00
31681;BME280;18281;51.364;9.566;2022-11-10T11:37:49;100905.94;;;9.69;100.00
31681;BME280;18281;51.364;9.566;2022-11-10T11:40:52;100915.25;;;9.53;100.00
31681;BME280;18281;51.364;9.566;2022-11-10T11:43:31;100921.59;;;9.47;100.00
31681;BME280;18281;51.364;9.566;2022-11-10T11:48:52;100925.50;;;9.84;100.00
31681;BME280;18281;51.364;9.566;2022-11-10T12:00:17;100922.03;;;9.58;100.00
31681;BME280;18281;51.364;9.566;2022-11-10T12:03:09;100929.72;;;9.14;100.00
31681;BME280;18281;51.364;9.566;2022-11-10T12:06:09;100940.78;;;9.22;100.00
31681;BME280;18281;51.364;9.566;2022-11-10T12:11:18;100935.84;;;9.40;100.00
31681;BME280;18281;51.364;9.566;2022-11-10T12:16:35;100942.31;;;9.30;100.00
31681;BME280;18281;51.364;9.566;2022-11-10T12:22:24;100942.34;;;9.53;100.00
31681;BME280;18281;51.364;9.566;2022-11-10T12:25:12;100934.97;;;9.65;100.00
31681;BME280;18281;51.364;9.566;2022-11-10T12:27:44;100938.16;;;9.73;100.00
31681;BME280;18281;51.364;9.566;2022-11-10T12:30:14;100939.47;;;9.85;100.00
31681;BME280;18281;51.364;9.566;2022-11-10T12:32:58;100943.56;;;9.43;100.00
31681;BME280;18281;51.364;9.566;2022-11-10T12:35:28;100939.94;;;9.95;100.00
31681;BME280;18281;51.364;9.566;2022-11-10T12:38:05;100948.56;;;9.49;100.00
31681;BME280;18281;51.364;9.566;2022-11-10T12:40:38;100942.75;;;9.66;100.00
31681;BME280;18281;51.364;9.566;2022-11-10T12:43:11;100948.97;;;10.11;100.00
31681;BME280;18281;51.364;9.566;2022-11-10T12:45:44;100947.38;;;10.07;100.00
31681;BME280;18281;51.364;9.566;2022-11-10T12:48:12;100959.75;;;10.25;100.00
31681;BME280;18281;51.364;9.566;2022-11-10T12:53:14;100962.78;;;9.69;100.00
31681;BME280;18281;51.364;9.566;2022-11-10T12:55:48;100967.69;;;10.02;100.00
31681;BME280;18281;51.364;9.566;2022-11-10T12:58:15;100970.19;;;9.81;100.00
31681;BME280;18281;51.364;9.566;2022-11-10T13:00:45;100975.31;;;10.08;100.00
31681;BME280;18281;51.364;9.566;2022-11-10T13:05:55;100988.53;;;10.51;100.00
31681;BME280;18281;51.364;9.566;2022-11-10T13:10:54;100986.69;;;10.08;100.00
31681;BME280;18281;51.364;9.566;2022-11-10T13:13:21;100983.03;;;9.89;100.00
31681;BME280;18281;51.364;9.566;2022-11-10T13:15:53;100983.31;;;10.05;100.00
31681;BME280;18281;51.364;9.566;2022-11-10T13:20:55;100994.47;;;10.56;100.00
31681;BME280;18281;51.364;9.566;2022-11-10T13:23:24;100996.97;;;10.37;100.00
31681;BME280;18281;51.364;9.566;2022-11-10T13:36:41;100994.53;;;9.59;100.00
31681;BME280;18281;51.364;9.566;2022-11-10T13:41:49;101002.47;;;9.58;100.00
31681;BME280;18281;51.364;9.566;2022-11-10T13:44:36;101015.84;;;9.50;100.00
31681;BME280;18281;51.364;9.566;2022-11-10T13:53:39;101019.34;;;9.49;100.00
31681;BME280;18281;51.364;9.566;2022-11-10T13:58:10;101013.28;;;9.49;100.00
31681;BME280;18281;51.364;9.566;2022-11-10T14:00:36;101032.63;;;9.45;100.00
31681;BME280;18281;51.364;9.566;2022-11-10T14:03:03;101027.19;;;9.25;100.00
31681;BME280;18281;51.364;9.566;2022-11-10T14:08:15;101039.69;;;9.16;100.00
31681;BME280;18281;51.364;9.566;2022-11-10T14:10:47;101045.59;;;8.96;100.00
31681;BME280;18281;51.364;9.566;2022-11-10T14:13:38;101039.75;;;9.14;100.00
31681;BME280;18281;51.364;9.566;2022-11-10T14:16:13;101040.16;;;9.02;100.00
31681;BME280;18281;51.364;9.566;2022-11-10T14:19:00;101052.13;;;9.11;100.00
31681;BME280;18281;51.364;9.566;2022-11-10T14:21:36;101046.06;;;9.08;100.00
31681;BME280;18281;51.364;9.566;2022-11-10T14:24:14;101049.84;;;9.27;100.00
31681;BME280;18281;51.364;9.566;2022-11-10T14:26:44;101053.72;;;8.60;100.00
31681;BME280;18281;51.364;9.566;2022-11-10T14:29:26;101056.56;;;8.80;100.00
31681;BME280;18281;51.364;9.566;2022-11-10T14:31:53;101058.91;;;8.89;100.00
31681;BME280;18281;51.364;9.566;2022-11-10T14:34:19;101059.00;;;8.58;100.00